Terminal Aerodrome Forecast
Issued by NWS

Home | Current Version | Previous Version | Text Only | Print | Product List | Glossary On
Versions: 1 2 3 4 5 6 7 8 9 10 11 12 13 14
000
FTAK31 PAJN 031700
TAFAKT
TAF
PAKT 031720Z 0318/0418 VRB05KT P6SM SCT040 BKN080
     FM040300 15004KT P6SM BKN050 BKN100
     FM041200 15005KT P6SM VCSH BKN045 OVC050
     FM041500 15007KT P6SM -RA BKN035 OVC050
      AMD LTD TO CLD VIS AND WIND 0406/0415=

USA.gov is the U.S. government's official web portal to all federal, state and local government web resources and services.